sensor_id;sensor_type;location;lat;lon;timestamp;temperature;humidity
18456;DHT22;9357;49.900;8.208;2024-01-11T00:00:57;-3.10;99.90
18456;DHT22;9357;49.900;8.208;2024-01-11T00:02:30;-3.10;99.90
18456;DHT22;9357;49.900;8.208;2024-01-11T00:04:03;-3.10;99.90
18456;DHT22;9357;49.900;8.208;2024-01-11T00:05:35;-3.10;99.90
18456;DHT22;9357;49.900;8.208;2024-01-11T00:07:08;-3.10;99.90
18456;DHT22;9357;49.900;8.208;2024-01-11T00:08:40;-3.10;99.90
18456;DHT22;9357;49.900;8.208;2024-01-11T00:10:15;-3.10;99.90
18456;DHT22;9357;49.900;8.208;2024-01-11T00:11:46;-3.10;99.90
18456;DHT22;9357;49.900;8.208;2024-01-11T00:13:19;-3.10;99.90
18456;DHT22;9357;49.900;8.208;2024-01-11T00:14:51;-3.10;99.90
18456;DHT22;9357;49.900;8.208;2024-01-11T00:16:24;-3.10;99.90
18456;DHT22;9357;49.900;8.208;2024-01-11T00:17:55;-3.10;99.90
18456;DHT22;9357;49.900;8.208;2024-01-11T00:19:28;-3.10;99.90
18456;DHT22;9357;49.900;8.208;2024-01-11T00:21:00;-3.10;99.90
18456;DHT22;9357;49.900;8.208;2024-01-11T00:22:33;-3.10;99.90
18456;DHT22;9357;49.900;8.208;2024-01-11T00:24:05;-3.20;99.90
18456;DHT22;9357;49.900;8.208;2024-01-11T00:25:39;-3.10;99.90
18456;DHT22;9357;49.900;8.208;2024-01-11T00:27:10;-3.10;99.90
18456;DHT22;9357;49.900;8.208;2024-01-11T00:28:43;-3.10;99.90
18456;DHT22;9357;49.900;8.208;2024-01-11T00:30:15;-3.20;99.90
18456;DHT22;9357;49.900;8.208;2024-01-11T00:31:48;-3.20;99.90
18456;DHT22;9357;49.900;8.208;2024-01-11T00:33:20;-3.20;99.90
18456;DHT22;9357;49.900;8.208;2024-01-11T00:34:53;-3.20;99.90
18456;DHT22;9357;49.900;8.208;2024-01-11T00:36:25;-3.20;99.90
18456;DHT22;9357;49.900;8.208;2024-01-11T00:37:58;-3.20;99.90
18456;DHT22;9357;49.900;8.208;2024-01-11T00:39:30;-3.20;99.90
18456;DHT22;9357;49.900;8.208;2024-01-11T00:41:04;-3.20;99.90
18456;DHT22;9357;49.900;8.208;2024-01-11T00:42:36;-3.20;99.90
18456;DHT22;9357;49.900;8.208;2024-01-11T00:44:08;-3.20;99.90
18456;DHT22;9357;49.900;8.208;2024-01-11T00:45:41;-3.30;99.90
18456;DHT22;9357;49.900;8.208;2024-01-11T00:47:13;-3.30;99.90
18456;DHT22;9357;49.900;8.208;2024-01-11T00:48:45;-3.30;99.90
18456;DHT22;9357;49.900;8.208;2024-01-11T00:50:18;-3.30;99.90
18456;DHT22;9357;49.900;8.208;2024-01-11T00:51:50;-3.30;99.90
18456;DHT22;9357;49.900;8.208;2024-01-11T00:53:23;-3.30;99.90
18456;DHT22;9357;49.900;8.208;2024-01-11T00:54:54;-3.30;99.90
18456;DHT22;9357;49.900;8.208;2024-01-11T00:56:28;-3.30;99.90
18456;DHT22;9357;49.900;8.208;2024-01-11T00:58:00;-3.30;99.90
18456;DHT22;9357;49.900;8.208;2024-01-11T00:59:33;-3.20;99.90
18456;DHT22;9357;49.900;8.208;2024-01-11T01:01:08;-3.30;99.90
18456;DHT22;9357;49.900;8.208;2024-01-11T01:02:41;-3.30;99.90
18456;DHT22;9357;49.900;8.208;2024-01-11T01:04:13;-3.30;99.90
18456;DHT22;9357;49.900;8.208;2024-01-11T01:05:46;-3.30;99.90
18456;DHT22;9357;49.900;8.208;2024-01-11T01:07:18;-3.30;99.90
18456;DHT22;9357;49.900;8.208;2024-01-11T01:08:51;-3.30;99.90
18456;DHT22;9357;49.900;8.208;2024-01-11T01:10:23;-3.30;99.90
18456;DHT22;9357;49.900;8.208;2024-01-11T01:11:57;-3.30;99.90
18456;DHT22;9357;49.900;8.208;2024-01-11T01:13:29;-3.30;99.90
18456;DHT22;9357;49.900;8.208;2024-01-11T01:15:02;-3.30;99.90
18456;DHT22;9357;49.900;8.208;2024-01-11T01:16:34;-3.30;99.90
18456;DHT22;9357;49.900;8.208;2024-01-11T01:18:06;-3.30;99.90
18456;DHT22;9357;49.900;8.208;2024-01-11T01:19:39;-3.30;99.90
18456;DHT22;9357;49.900;8.208;2024-01-11T01:21:12;-3.30;99.90
18456;DHT22;9357;49.900;8.208;2024-01-11T01:22:43;-3.40;99.90
18456;DHT22;9357;49.900;8.208;2024-01-11T01:24:16;-3.30;99.90
18456;DHT22;9357;49.900;8.208;2024-01-11T01:25:48;-3.30;99.90
18456;DHT22;9357;49.900;8.208;2024-01-11T01:27:22;-3.40;99.90
18456;DHT22;9357;49.900;8.208;2024-01-11T01:28:54;-3.30;99.90
18456;DHT22;9357;49.900;8.208;2024-01-11T01:30:27;-3.40;99.90
18456;DHT22;9357;49.900;8.208;2024-01-11T01:31:59;-3.40;99.90
18456;DHT22;9357;49.900;8.208;2024-01-11T01:33:32;-3.40;99.90
18456;DHT22;9357;49.900;8.208;2024-01-11T01:35:04;-3.40;99.90
18456;DHT22;9357;49.900;8.208;2024-01-11T01:36:37;-3.40;99.90
18456;DHT22;9357;49.900;8.208;2024-01-11T01:38:09;-3.40;99.90
18456;DHT22;9357;49.900;8.208;2024-01-11T01:39:41;-3.40;99.90
18456;DHT22;9357;49.900;8.208;2024-01-11T01:41:13;-3.40;99.90
18456;DHT22;9357;49.900;8.208;2024-01-11T01:42:48;-3.50;99.90
18456;DHT22;9357;49.900;8.208;2024-01-11T01:44:20;-3.50;99.90
18456;DHT22;9357;49.900;8.208;2024-01-11T01:45:53;-3.50;99.90
18456;DHT22;9357;49.900;8.208;2024-01-11T01:47:25;-3.50;99.90
18456;DHT22;9357;49.900;8.208;2024-01-11T01:48:59;-3.50;99.90
18456;DHT22;9357;49.900;8.208;2024-01-11T01:50:31;-3.50;99.90
18456;DHT22;9357;49.900;8.208;2024-01-11T01:52:06;-3.50;99.90
18456;DHT22;9357;49.900;8.208;2024-01-11T01:53:38;-3.50;99.90
18456;DHT22;9357;49.900;8.208;2024-01-11T01:55:12;-3.50;99.90
18456;DHT22;9357;49.900;8.208;2024-01-11T01:56:46;-3.60;99.90
18456;DHT22;9357;49.900;8.208;2024-01-11T01:58:20;-3.60;99.90
18456;DHT22;9357;49.900;8.208;2024-01-11T01:59:53;-3.60;99.90
18456;DHT22;9357;49.900;8.208;2024-01-11T02:01:25;-3.60;99.90
18456;DHT22;9357;49.900;8.208;2024-01-11T02:02:59;-3.60;99.90
18456;DHT22;9357;49.900;8.208;2024-01-11T02:04:32;-3.60;99.90
18456;DHT22;9357;49.900;8.208;2024-01-11T02:06:05;-3.60;99.90
18456;DHT22;9357;49.900;8.208;2024-01-11T02:07:38;-3.60;99.90
18456;DHT22;9357;49.900;8.208;2024-01-11T02:09:11;-3.60;99.90
18456;DHT22;9357;49.900;8.208;2024-01-11T02:10:45;-3.70;99.90
18456;DHT22;9357;49.900;8.208;2024-01-11T02:12:17;-3.60;99.90
18456;DHT22;9357;49.900;8.208;2024-01-11T02:13:51;-3.70;99.90
18456;DHT22;9357;49.900;8.208;2024-01-11T02:15:24;-3.70;99.90
18456;DHT22;9357;49.900;8.208;2024-01-11T02:16:56;-3.70;99.90
18456;DHT22;9357;49.900;8.208;2024-01-11T02:18:28;-3.70;99.90
18456;DHT22;9357;49.900;8.208;2024-01-11T02:20:00;-3.70;99.90
18456;DHT22;9357;49.900;8.208;2024-01-11T02:21:35;-3.70;99.90
18456;DHT22;9357;49.900;8.208;2024-01-11T02:23:14;-3.60;99.90
18456;DHT22;9357;49.900;8.208;2024-01-11T02:24:50;-3.70;99.90
18456;DHT22;9357;49.900;8.208;2024-01-11T02:26:24;-3.60;99.90
18456;DHT22;9357;49.900;8.208;2024-01-11T02:27:57;-3.70;99.90
18456;DHT22;9357;49.900;8.208;2024-01-11T02:29:29;-3.60;99.90
18456;DHT22;9357;49.900;8.208;2024-01-11T02:31:02;-3.60;99.90
18456;DHT22;9357;49.900;8.208;2024-01-11T02:32:34;-3.60;99.90
18456;DHT22;9357;49.900;8.208;2024-01-11T02:34:07;-3.60;99.90
18456;DHT22;9357;49.900;8.208;2024-01-11T02:35:39;-3.70;99.90
18456;DHT22;9357;49.900;8.208;2024-01-11T02:37:18;-3.60;99.90
18456;DHT22;9357;49.900;8.208;2024-01-11T02:38:51;-3.70;99.90
18456;DHT22;9357;49.900;8.208;2024-01-11T02:40:26;-3.70;99.90
18456;DHT22;9357;49.900;8.208;2024-01-11T02:41:58;-3.70;99.90
18456;DHT22;9357;49.900;8.208;2024-01-11T02:43:30;-3.70;99.90
18456;DHT22;9357;49.900;8.208;2024-01-11T02:45:03;-3.70;99.90
18456;DHT22;9357;49.900;8.208;2024-01-11T02:46:36;-3.70;99.90
18456;DHT22;9357;49.900;8.208;2024-01-11T02:48:08;-3.70;99.90
18456;DHT22;9357;49.900;8.208;2024-01-11T02:49:41;-3.70;99.90
18456;DHT22;9357;49.900;8.208;2024-01-11T02:51:12;-3.70;99.90
18456;DHT22;9357;49.900;8.208;2024-01-11T02:52:45;-3.70;99.90
18456;DHT22;9357;49.900;8.208;2024-01-11T02:54:17;-3.70;99.90
18456;DHT22;9357;49.900;8.208;2024-01-11T02:55:51;-3.70;99.90
18456;DHT22;9357;49.900;8.208;2024-01-11T02:57:23;-3.80;99.90
18456;DHT22;9357;49.900;8.208;2024-01-11T02:58:55;-3.80;99.90
18456;DHT22;9357;49.900;8.208;2024-01-11T03:00:27;-3.80;99.90
18456;DHT22;9357;49.900;8.208;2024-01-11T03:02:00;-3.80;99.90
18456;DHT22;9357;49.900;8.208;2024-01-11T03:03:32;-3.80;99.90
18456;DHT22;9357;49.900;8.208;2024-01-11T03:05:05;-3.80;99.90
18456;DHT22;9357;49.900;8.208;2024-01-11T03:06:37;-3.90;99.90
18456;DHT22;9357;49.900;8.208;2024-01-11T03:08:10;-3.90;99.90
18456;DHT22;9357;49.900;8.208;2024-01-11T03:09:42;-3.90;99.90
18456;DHT22;9357;49.900;8.208;2024-01-11T03:11:16;-3.90;99.90
18456;DHT22;9357;49.900;8.208;2024-01-11T03:12:48;-3.90;99.90
18456;DHT22;9357;49.900;8.208;2024-01-11T03:14:21;-3.90;99.90
18456;DHT22;9357;49.900;8.208;2024-01-11T03:15:53;-3.90;99.90
18456;DHT22;9357;49.900;8.208;2024-01-11T03:17:25;-3.90;99.90
18456;DHT22;9357;49.900;8.208;2024-01-11T03:18:57;-3.90;99.90
18456;DHT22;9357;49.900;8.208;2024-01-11T03:20:31;-4.00;99.90
18456;DHT22;9357;49.900;8.208;2024-01-11T03:22:03;-3.90;99.90
18456;DHT22;9357;49.900;8.208;2024-01-11T03:23:38;-3.90;99.90
18456;DHT22;9357;49.900;8.208;2024-01-11T03:25:10;-3.90;99.90
18456;DHT22;9357;49.900;8.208;2024-01-11T03:26:44;-3.90;99.90
18456;DHT22;9357;49.900;8.208;2024-01-11T03:28:17;-3.90;99.90
18456;DHT22;9357;49.900;8.208;2024-01-11T03:29:49;-3.90;99.90
18456;DHT22;9357;49.900;8.208;2024-01-11T03:31:21;-3.90;99.90
18456;DHT22;9357;49.900;8.208;2024-01-11T03:32:53;-3.90;99.90
18456;DHT22;9357;49.900;8.208;2024-01-11T03:34:26;-3.90;99.90
18456;DHT22;9357;49.900;8.208;2024-01-11T03:35:59;-3.90;99.90
18456;DHT22;9357;49.900;8.208;2024-01-11T03:37:32;-3.80;99.90
18456;DHT22;9357;49.900;8.208;2024-01-11T03:39:04;-3.80;99.90
18456;DHT22;9357;49.900;8.208;2024-01-11T03:40:36;-3.80;99.90
18456;DHT22;9357;49.900;8.208;2024-01-11T03:42:09;-3.80;99.90
18456;DHT22;9357;49.900;8.208;2024-01-11T03:43:43;-3.80;99.90
18456;DHT22;9357;49.900;8.208;2024-01-11T03:45:17;-3.80;99.90
18456;DHT22;9357;49.900;8.208;2024-01-11T03:46:50;-3.80;99.90
18456;DHT22;9357;49.900;8.208;2024-01-11T03:48:23;-3.80;99.90
18456;DHT22;9357;49.900;8.208;2024-01-11T03:49:56;-3.70;99.90
18456;DHT22;9357;49.900;8.208;2024-01-11T03:51:27;-3.70;99.90
18456;DHT22;9357;49.900;8.208;2024-01-11T03:53:00;-3.70;99.90
18456;DHT22;9357;49.900;8.208;2024-01-11T03:54:34;-3.70;99.90
18456;DHT22;9357;49.900;8.208;2024-01-11T03:56:06;-3.70;99.90
18456;DHT22;9357;49.900;8.208;2024-01-11T03:57:40;-3.70;99.90
18456;DHT22;9357;49.900;8.208;2024-01-11T03:59:12;-3.70;99.90
18456;DHT22;9357;49.900;8.208;2024-01-11T04:00:45;-3.70;99.90
18456;DHT22;9357;49.900;8.208;2024-01-11T04:02:17;-3.70;99.90
18456;DHT22;9357;49.900;8.208;2024-01-11T04:03:50;-3.60;99.90
18456;DHT22;9357;49.900;8.208;2024-01-11T04:05:22;-3.60;99.90
18456;DHT22;9357;49.900;8.208;2024-01-11T04:06:55;-3.60;99.90
18456;DHT22;9357;49.900;8.208;2024-01-11T04:08:27;-3.60;99.90
18456;DHT22;9357;49.900;8.208;2024-01-11T04:10:00;-3.60;99.90
18456;DHT22;9357;49.900;8.208;2024-01-11T04:11:31;-3.70;99.90
18456;DHT22;9357;49.900;8.208;2024-01-11T04:13:06;-3.60;99.90
18456;DHT22;9357;49.900;8.208;2024-01-11T04:14:38;-3.70;99.90
18456;DHT22;9357;49.900;8.208;2024-01-11T04:16:12;-3.70;99.90
18456;DHT22;9357;49.900;8.208;2024-01-11T04:17:44;-3.70;99.90
18456;DHT22;9357;49.900;8.208;2024-01-11T04:19:16;-3.70;99.90
18456;DHT22;9357;49.900;8.208;2024-01-11T04:20:52;-3.70;99.90
18456;DHT22;9357;49.900;8.208;2024-01-11T04:22:25;-3.70;99.90
18456;DHT22;9357;49.900;8.208;2024-01-11T04:23:59;-3.70;99.90
18456;DHT22;9357;49.900;8.208;2024-01-11T04:25:32;-3.70;99.90
18456;DHT22;9357;49.900;8.208;2024-01-11T04:27:03;-3.70;99.90
18456;DHT22;9357;49.900;8.208;2024-01-11T04:28:38;-3.70;99.90
18456;DHT22;9357;49.900;8.208;2024-01-11T04:30:10;-3.70;99.90
18456;DHT22;9357;49.900;8.208;2024-01-11T04:31:43;-3.70;99.90
18456;DHT22;9357;49.900;8.208;2024-01-11T04:33:14;-3.70;99.90
18456;DHT22;9357;49.900;8.208;2024-01-11T04:34:47;-3.70;99.90
18456;DHT22;9357;49.900;8.208;2024-01-11T04:36:19;-3.70;99.90
18456;DHT22;9357;49.900;8.208;2024-01-11T04:37:52;-3.70;99.90
18456;DHT22;9357;49.900;8.208;2024-01-11T04:39:24;-3.70;99.90
18456;DHT22;9357;49.900;8.208;2024-01-11T04:40:56;-3.70;99.90
18456;DHT22;9357;49.900;8.208;2024-01-11T04:42:28;-3.70;99.90
18456;DHT22;9357;49.900;8.208;2024-01-11T04:44:02;-3.70;99.90
18456;DHT22;9357;49.900;8.208;2024-01-11T04:45:34;-3.70;99.90
18456;DHT22;9357;49.900;8.208;2024-01-11T04:47:07;-3.70;99.90
18456;DHT22;9357;49.900;8.208;2024-01-11T04:48:40;-3.70;99.90
18456;DHT22;9357;49.900;8.208;2024-01-11T04:50:13;-3.70;99.90
18456;DHT22;9357;49.900;8.208;2024-01-11T04:51:44;-3.80;99.90
18456;DHT22;9357;49.900;8.208;2024-01-11T04:53:17;-3.80;99.90
18456;DHT22;9357;49.900;8.208;2024-01-11T04:54:49;-3.80;99.90
18456;DHT22;9357;49.900;8.208;2024-01-11T04:56:22;-3.80;99.90
18456;DHT22;9357;49.900;8.208;2024-01-11T04:57:55;-3.80;99.90
18456;DHT22;9357;49.900;8.208;2024-01-11T04:59:29;-3.80;99.90
18456;DHT22;9357;49.900;8.208;2024-01-11T05:01:01;-3.80;99.90
18456;DHT22;9357;49.900;8.208;2024-01-11T05:02:33;-3.80;99.90
18456;DHT22;9357;49.900;8.208;2024-01-11T05:04:07;-3.80;99.90
18456;DHT22;9357;49.900;8.208;2024-01-11T05:05:39;-3.80;99.90
18456;DHT22;9357;49.900;8.208;2024-01-11T05:07:11;-3.90;99.90
18456;DHT22;9357;49.900;8.208;2024-01-11T05:08:44;-3.90;99.90
18456;DHT22;9357;49.900;8.208;2024-01-11T05:10:16;-3.90;99.90
18456;DHT22;9357;49.900;8.208;2024-01-11T05:11:49;-3.90;99.90
18456;DHT22;9357;49.900;8.208;2024-01-11T05:13:21;-3.90;99.90
18456;DHT22;9357;49.900;8.208;2024-01-11T05:14:55;-3.90;99.90
18456;DHT22;9357;49.900;8.208;2024-01-11T05:16:27;-3.90;99.90
18456;DHT22;9357;49.900;8.208;2024-01-11T05:18:00;-4.00;99.90
18456;DHT22;9357;49.900;8.208;2024-01-11T05:19:32;-4.00;99.90
18456;DHT22;9357;49.900;8.208;2024-01-11T05:21:05;-4.00;99.90
18456;DHT22;9357;49.900;8.208;2024-01-11T05:22:37;-4.00;99.90
18456;DHT22;9357;49.900;8.208;2024-01-11T05:24:10;-4.00;99.90
18456;DHT22;9357;49.900;8.208;2024-01-11T05:25:43;-3.90;99.90
18456;DHT22;9357;49.900;8.208;2024-01-11T05:27:14;-4.00;99.90
18456;DHT22;9357;49.900;8.208;2024-01-11T05:28:47;-3.90;99.90
18456;DHT22;9357;49.900;8.208;2024-01-11T05:30:20;-3.90;99.90
18456;DHT22;9357;49.900;8.208;2024-01-11T05:31:53;-3.90;99.90
18456;DHT22;9357;49.900;8.208;2024-01-11T05:33:25;-4.00;99.90
18456;DHT22;9357;49.900;8.208;2024-01-11T05:34:58;-4.00;99.90
18456;DHT22;9357;49.900;8.208;2024-01-11T05:36:31;-4.00;99.90
18456;DHT22;9357;49.900;8.208;2024-01-11T05:38:03;-4.00;99.90
18456;DHT22;9357;49.900;8.208;2024-01-11T05:39:36;-4.00;99.90
18456;DHT22;9357;49.900;8.208;2024-01-11T05:41:08;-4.10;99.90
18456;DHT22;9357;49.900;8.208;2024-01-11T05:42:41;-4.10;99.90
18456;DHT22;9357;49.900;8.208;2024-01-11T05:44:13;-4.10;99.90
18456;DHT22;9357;49.900;8.208;2024-01-11T05:45:47;-4.10;99.90
18456;DHT22;9357;49.900;8.208;2024-01-11T05:47:20;-4.10;99.90
18456;DHT22;9357;49.900;8.208;2024-01-11T05:48:52;-4.00;99.90
18456;DHT22;9357;49.900;8.208;2024-01-11T05:50:25;-4.00;99.90
18456;DHT22;9357;49.900;8.208;2024-01-11T05:51:58;-4.00;99.90
18456;DHT22;9357;49.900;8.208;2024-01-11T05:53:29;-4.00;99.90
18456;DHT22;9357;49.900;8.208;2024-01-11T05:55:06;-4.00;99.90
18456;DHT22;9357;49.900;8.208;2024-01-11T05:56:38;-4.00;99.90
18456;DHT22;9357;49.900;8.208;2024-01-11T05:58:11;-4.00;99.90
18456;DHT22;9357;49.900;8.208;2024-01-11T05:59:43;-4.00;99.90
18456;DHT22;9357;49.900;8.208;2024-01-11T06:01:18;-4.10;99.90
18456;DHT22;9357;49.900;8.208;2024-01-11T06:02:50;-4.10;99.90
18456;DHT22;9357;49.900;8.208;2024-01-11T06:04:23;-4.10;99.90
18456;DHT22;9357;49.900;8.208;2024-01-11T06:05:55;-4.10;99.90
18456;DHT22;9357;49.900;8.208;2024-01-11T06:07:27;-4.20;99.90
18456;DHT22;9357;49.900;8.208;2024-01-11T06:09:00;-4.20;99.90
18456;DHT22;9357;49.900;8.208;2024-01-11T06:10:35;-4.10;99.90
18456;DHT22;9357;49.900;8.208;2024-01-11T06:12:09;-4.10;99.90
18456;DHT22;9357;49.900;8.208;2024-01-11T06:13:40;-4.10;99.90
18456;DHT22;9357;49.900;8.208;2024-01-11T06:15:13;-4.10;99.90
18456;DHT22;9357;49.900;8.208;2024-01-11T06:16:46;-4.20;99.90
18456;DHT22;9357;49.900;8.208;2024-01-11T06:18:19;-4.20;99.90
18456;DHT22;9357;49.900;8.208;2024-01-11T06:19:51;-4.20;99.90
18456;DHT22;9357;49.900;8.208;2024-01-11T06:21:24;-4.20;99.90
18456;DHT22;9357;49.900;8.208;2024-01-11T06:22:56;-4.20;99.90
18456;DHT22;9357;49.900;8.208;2024-01-11T06:24:28;-4.20;99.90
18456;DHT22;9357;49.900;8.208;2024-01-11T06:26:01;-4.30;99.90
18456;DHT22;9357;49.900;8.208;2024-01-11T06:27:33;-4.20;99.90
18456;DHT22;9357;49.900;8.208;2024-01-11T06:29:05;-4.20;99.90
18456;DHT22;9357;49.900;8.208;2024-01-11T06:30:37;-4.30;99.90
18456;DHT22;9357;49.900;8.208;2024-01-11T06:32:11;-4.30;99.90
18456;DHT22;9357;49.900;8.208;2024-01-11T06:33:43;-4.30;99.90
18456;DHT22;9357;49.900;8.208;2024-01-11T06:35:19;-4.30;99.90
18456;DHT22;9357;49.900;8.208;2024-01-11T06:36:50;-4.40;99.90
18456;DHT22;9357;49.900;8.208;2024-01-11T06:38:24;-4.40;99.90
18456;DHT22;9357;49.900;8.208;2024-01-11T06:39:56;-4.40;99.90
18456;DHT22;9357;49.900;8.208;2024-01-11T06:41:28;-4.40;99.90
18456;DHT22;9357;49.900;8.208;2024-01-11T06:43:00;-4.40;99.90
18456;DHT22;9357;49.900;8.208;2024-01-11T06:44:33;-4.50;99.90
18456;DHT22;9357;49.900;8.208;2024-01-11T06:46:05;-4.50;99.90
18456;DHT22;9357;49.900;8.208;2024-01-11T06:47:39;-4.50;99.90
18456;DHT22;9357;49.900;8.208;2024-01-11T06:49:11;-4.50;99.90
18456;DHT22;9357;49.900;8.208;2024-01-11T06:50:44;-4.50;99.90
18456;DHT22;9357;49.900;8.208;2024-01-11T06:52:16;-4.50;99.90
18456;DHT22;9357;49.900;8.208;2024-01-11T06:53:51;-4.50;99.90
18456;DHT22;9357;49.900;8.208;2024-01-11T06:55:23;-4.60;99.90
18456;DHT22;9357;49.900;8.208;2024-01-11T06:56:56;-4.50;99.90
18456;DHT22;9357;49.900;8.208;2024-01-11T06:58:27;-4.50;99.90
18456;DHT22;9357;49.900;8.208;2024-01-11T07:00:00;-4.50;99.90
18456;DHT22;9357;49.900;8.208;2024-01-11T07:01:32;-4.50;99.90
18456;DHT22;9357;49.900;8.208;2024-01-11T07:03:06;-4.40;99.90
18456;DHT22;9357;49.900;8.208;2024-01-11T07:04:38;-4.40;99.90
18456;DHT22;9357;49.900;8.208;2024-01-11T07:06:10;-4.50;99.90
18456;DHT22;9357;49.900;8.208;2024-01-11T07:07:43;-4.40;99.90
18456;DHT22;9357;49.900;8.208;2024-01-11T07:09:15;-4.50;99.90
18456;DHT22;9357;49.900;8.208;2024-01-11T07:10:48;-4.50;99.90
18456;DHT22;9357;49.900;8.208;2024-01-11T07:12:22;-4.40;99.90
18456;DHT22;9357;49.900;8.208;2024-01-11T07:13:55;-4.50;99.90
18456;DHT22;9357;49.900;8.208;2024-01-11T07:15:28;-4.50;99.90
18456;DHT22;9357;49.900;8.208;2024-01-11T07:17:01;-4.50;99.90
18456;DHT22;9357;49.900;8.208;2024-01-11T07:18:34;-4.50;99.90
18456;DHT22;9357;49.900;8.208;2024-01-11T07:20:08;-4.50;99.90
18456;DHT22;9357;49.900;8.208;2024-01-11T07:21:40;-4.50;99.90
18456;DHT22;9357;49.900;8.208;2024-01-11T07:23:13;-4.50;99.90
18456;DHT22;9357;49.900;8.208;2024-01-11T07:24:45;-4.60;99.90
18456;DHT22;9357;49.900;8.208;2024-01-11T07:26:18;-4.50;99.90
18456;DHT22;9357;49.900;8.208;2024-01-11T07:27:49;-4.60;99.90
18456;DHT22;9357;49.900;8.208;2024-01-11T07:29:22;-4.60;99.90
18456;DHT22;9357;49.900;8.208;2024-01-11T07:30:54;-4.60;99.90
18456;DHT22;9357;49.900;8.208;2024-01-11T07:32:27;-4.60;99.90
18456;DHT22;9357;49.900;8.208;2024-01-11T07:34:01;-4.60;99.90
18456;DHT22;9357;49.900;8.208;2024-01-11T07:35:33;-4.60;99.90
18456;DHT22;9357;49.900;8.208;2024-01-11T07:37:06;-4.60;99.90
18456;DHT22;9357;49.900;8.208;2024-01-11T07:38:38;-4.60;99.90
18456;DHT22;9357;49.900;8.208;2024-01-11T07:40:11;-4.50;99.90
18456;DHT22;9357;49.900;8.208;2024-01-11T07:41:43;-4.50;99.90
18456;DHT22;9357;49.900;8.208;2024-01-11T07:43:18;-4.50;99.90
18456;DHT22;9357;49.900;8.208;2024-01-11T07:44:50;-4.50;99.90
18456;DHT22;9357;49.900;8.208;2024-01-11T07:46:23;-4.40;99.90
18456;DHT22;9357;49.900;8.208;2024-01-11T07:48:09;-4.40;99.90
18456;DHT22;9357;49.900;8.208;2024-01-11T07:49:43;-4.40;99.90
18456;DHT22;9357;49.900;8.208;2024-01-11T07:51:15;-4.40;99.90
18456;DHT22;9357;49.900;8.208;2024-01-11T07:52:48;-4.40;99.90
18456;DHT22;9357;49.900;8.208;2024-01-11T07:54:21;-4.40;99.90
18456;DHT22;9357;49.900;8.208;2024-01-11T07:55:53;-4.40;99.90
18456;DHT22;9357;49.900;8.208;2024-01-11T07:57:25;-4.30;99.90
18456;DHT22;9357;49.900;8.208;2024-01-11T07:58:58;-4.30;99.90
18456;DHT22;9357;49.900;8.208;2024-01-11T08:00:30;-4.30;99.90
18456;DHT22;9357;49.900;8.208;2024-01-11T08:02:03;-4.30;99.90
18456;DHT22;9357;49.900;8.208;2024-01-11T08:03:35;-4.30;99.90
18456;DHT22;9357;49.900;8.208;2024-01-11T08:05:09;-4.20;99.90
18456;DHT22;9357;49.900;8.208;2024-01-11T08:06:41;-4.20;99.90
18456;DHT22;9357;49.900;8.208;2024-01-11T08:08:15;-4.20;99.90
18456;DHT22;9357;49.900;8.208;2024-01-11T08:09:46;-4.20;99.90
18456;DHT22;9357;49.900;8.208;2024-01-11T08:11:19;-4.20;99.90
18456;DHT22;9357;49.900;8.208;2024-01-11T08:12:52;-4.20;99.90
18456;DHT22;9357;49.900;8.208;2024-01-11T08:14:24;-4.20;99.90
18456;DHT22;9357;49.900;8.208;2024-01-11T08:15:57;-4.20;99.90
18456;DHT22;9357;49.900;8.208;2024-01-11T08:17:29;-4.20;99.90
18456;DHT22;9357;49.900;8.208;2024-01-11T08:19:02;-4.20;99.90
18456;DHT22;9357;49.900;8.208;2024-01-11T08:20:36;-4.20;99.90
18456;DHT22;9357;49.900;8.208;2024-01-11T08:22:10;-4.20;99.90
18456;DHT22;9357;49.900;8.208;2024-01-11T08:23:42;-4.20;99.90
18456;DHT22;9357;49.900;8.208;2024-01-11T08:25:17;-4.20;99.90
18456;DHT22;9357;49.900;8.208;2024-01-11T08:26:49;-4.10;99.90
18456;DHT22;9357;49.900;8.208;2024-01-11T08:28:22;-4.10;99.90
18456;DHT22;9357;49.900;8.208;2024-01-11T08:29:54;-4.10;99.90
18456;DHT22;9357;49.900;8.208;2024-01-11T08:31:26;-4.10;99.90
18456;DHT22;9357;49.900;8.208;2024-01-11T08:32:59;-4.10;99.90
18456;DHT22;9357;49.900;8.208;2024-01-11T08:34:31;-4.10;99.90
18456;DHT22;9357;49.900;8.208;2024-01-11T08:36:06;-4.10;99.90
18456;DHT22;9357;49.900;8.208;2024-01-11T08:37:39;-4.10;99.90
18456;DHT22;9357;49.900;8.208;2024-01-11T08:39:12;-4.10;99.90
18456;DHT22;9357;49.900;8.208;2024-01-11T08:40:44;-4.10;99.90
18456;DHT22;9357;49.900;8.208;2024-01-11T08:42:17;-4.10;99.90
18456;DHT22;9357;49.900;8.208;2024-01-11T08:43:49;-4.10;99.90
18456;DHT22;9357;49.900;8.208;2024-01-11T08:45:23;-4.00;99.90
18456;DHT22;9357;49.900;8.208;2024-01-11T08:46:56;-4.00;99.90
18456;DHT22;9357;49.900;8.208;2024-01-11T08:48:30;-4.00;99.90
18456;DHT22;9357;49.900;8.208;2024-01-11T08:50:03;-4.00;99.90
18456;DHT22;9357;49.900;8.208;2024-01-11T08:51:39;-4.00;99.90
18456;DHT22;9357;49.900;8.208;2024-01-11T08:53:11;-4.00;99.90
18456;DHT22;9357;49.900;8.208;2024-01-11T08:54:43;-4.00;99.90
18456;DHT22;9357;49.900;8.208;2024-01-11T08:56:16;-4.00;99.90
18456;DHT22;9357;49.900;8.208;2024-01-11T08:57:48;-3.90;99.90
18456;DHT22;9357;49.900;8.208;2024-01-11T08:59:20;-3.90;99.90
18456;DHT22;9357;49.900;8.208;2024-01-11T09:00:56;-3.90;99.90
18456;DHT22;9357;49.900;8.208;2024-01-11T09:02:28;-3.90;99.90
18456;DHT22;9357;49.900;8.208;2024-01-11T09:04:01;-3.90;99.90
18456;DHT22;9357;49.900;8.208;2024-01-11T09:05:33;-3.90;99.90
18456;DHT22;9357;49.900;8.208;2024-01-11T09:07:07;-3.90;99.90
18456;DHT22;9357;49.900;8.208;2024-01-11T09:08:39;-3.90;99.90
18456;DHT22;9357;49.900;8.208;2024-01-11T09:10:12;-3.80;99.90
18456;DHT22;9357;49.900;8.208;2024-01-11T09:11:44;-3.80;99.90
18456;DHT22;9357;49.900;8.208;2024-01-11T09:13:17;-3.80;99.90
18456;DHT22;9357;49.900;8.208;2024-01-11T09:14:49;-3.80;99.90
18456;DHT22;9357;49.900;8.208;2024-01-11T09:16:21;-3.80;99.90
18456;DHT22;9357;49.900;8.208;2024-01-11T09:17:54;-3.80;99.90
18456;DHT22;9357;49.900;8.208;2024-01-11T09:19:26;-3.70;99.90
18456;DHT22;9357;49.900;8.208;2024-01-11T09:20:59;-3.70;99.90
18456;DHT22;9357;49.900;8.208;2024-01-11T09:22:32;-3.70;99.90
18456;DHT22;9357;49.900;8.208;2024-01-11T09:24:05;-3.70;99.90
18456;DHT22;9357;49.900;8.208;2024-01-11T09:25:37;-3.60;99.90
18456;DHT22;9357;49.900;8.208;2024-01-11T09:27:09;-3.60;99.90
18456;DHT22;9357;49.900;8.208;2024-01-11T09:28:41;-3.60;99.90
18456;DHT22;9357;49.900;8.208;2024-01-11T09:30:14;-3.70;99.90
18456;DHT22;9357;49.900;8.208;2024-01-11T09:31:47;-3.60;99.90
18456;DHT22;9357;49.900;8.208;2024-01-11T09:33:19;-3.70;99.90
18456;DHT22;9357;49.900;8.208;2024-01-11T09:34:52;-3.70;99.90
18456;DHT22;9357;49.900;8.208;2024-01-11T09:36:24;-3.70;99.90
18456;DHT22;9357;49.900;8.208;2024-01-11T09:37:58;-3.60;99.90
18456;DHT22;9357;49.900;8.208;2024-01-11T09:39:30;-3.60;99.90
18456;DHT22;9357;49.900;8.208;2024-01-11T09:41:07;-3.60;99.90
18456;DHT22;9357;49.900;8.208;2024-01-11T09:42:40;-3.60;99.90
18456;DHT22;9357;49.900;8.208;2024-01-11T09:44:14;-3.60;99.90
18456;DHT22;9357;49.900;8.208;2024-01-11T09:45:46;-3.50;99.90
18456;DHT22;9357;49.900;8.208;2024-01-11T09:47:21;-3.50;99.90
18456;DHT22;9357;49.900;8.208;2024-01-11T09:48:54;-3.50;99.90
18456;DHT22;9357;49.900;8.208;2024-01-11T09:50:28;-3.50;99.90
18456;DHT22;9357;49.900;8.208;2024-01-11T09:52:02;-3.40;99.90
18456;DHT22;9357;49.900;8.208;2024-01-11T09:53:36;-3.40;99.90
18456;DHT22;9357;49.900;8.208;2024-01-11T09:55:10;-3.40;99.90